x

Buoy B01 - Western Maine Shelf (44030) Wave Buoy

12:04 - Sat 3rd Dec 2016 All times are EST. -5 hours from GMT.

  • Sig Wave height 2.3ft
  • Peak Period 3s
  • Wind
    20mph, 22mph gusts
  • Sea Temp 49°f
  • Ar Temp 42°f
  • Sea Pressure 1005.1mb
  • Buoy B01 - Western Maine Shelf
  • Buoy B01 - Western Maine Shelf

More Historic Weather Station data

Upgrade to MSW Pro to gain access to the past 30 days of data for over 8000 Wavebouys and Weather Stations around the globe.

Join Pro

Comparision Forecast

View Surf forecast
   
Sáb 12/03 12:04 2.5ft 3s 20 22 mph 1005.1mb 49f 42f
Sex 12/02 11:04 2.5ft 4s 18 22 mph 1004.9mb 49f 43f
10:04 2.5ft 4s 20 25 mph 1004.6mb 49f 45f
8:04 2.5ft 4s 20 25 mph 1005mb 49f 46f
7:04 3ft 11s 20 25 mph 1005.3mb 49f 47f
6:04  -   -  16 25 mph 1005.2mb 49f 48f
5:04 2ft 4s 18 22 mph 1005.3mb 49f 49f
3:04 2ft 4s 16 20 mph 1004.6mb 49f 50f
2:04 2ft 4s 20 25 mph 1004.3mb 50f 50f
1:04  -   -  16 18 mph 1004.6mb 50f 49f
12:04 3.5ft 11s 16 20 mph 1005.1mb 50f 48f
11:04 3.5ft 11s 13 20 mph 1005.6mb 50f 47f
10:04 3.5ft 11s 11 13 mph 1006.5mb 50f 45f
9:04 3.5ft 11s 16 20 mph 1006.6mb 50f 43f
8:04 3.5ft 11s 18 20 mph 1006.5mb 50f 43f
7:04 3.5ft 11s 16 20 mph 1006.5mb 50f 43f
6:04 3.5ft 11s 18 20 mph 1006.2mb 50f 42f
5:04 3.5ft 11s 20 22 mph 1005.5mb 50f 43f
3:04 2ft 4s 22 27 mph 1004.2mb 50f 44f
2:04 2ft 4s 22 25 mph 1004mb 50f 44f
1:04  -   -  22 25 mph 1003.2mb 50f 44f
12:04 3.5ft 11s 20 22 mph 1002.8mb 50f 45f
Qui 12/01 11:04 4.5ft 8s 16 20 mph 1002.9mb 50f 45f
10:04 3.5ft 8s 20 25 mph 1002mb 50f 46f
9:04 4.5ft 8s 22 27 mph 1001.2mb 50f 46f
8:04 4.5ft 11s 18 22 mph 1001.2mb 50f 47f
7:04 5ft 11s 18 22 mph 1000.7mb 50f 48f
6:04 5ft 11s 18 20 mph 1000.2mb 50f 49f
5:04 6ft 11s 20 27 mph 999.7mb 50f 50f
4:04 6ft 8s 20 25 mph 998.6mb 50f 51f
3:04 7.5ft 11s 16 22 mph 997.5mb 50f 53f
2:04 8ft 11s 18 20 mph 996.7mb 50f 54f
12:04 10ft 11s 9 11 mph 996.8mb 51f 49f
11:04 7.5ft 8s 20 25 mph 996.5mb 51f 47f
10:04 9ft 8s 22 25 mph 996.5mb 51f 46f
9:04 9ft 8s 20 25 mph 995.2mb 51f 46f
8:04 9.5ft 8s 18 22 mph 994.5mb 51f 49f
7:04 11ft 8s 11 18 mph 993.9mb 51f 51f
6:04 11.5ft 8s 18 22 mph 994.5mb 51f 52f
5:04 8.5ft 6s 27 34 mph 996.2mb 51f 50f
4:04 9ft 6s 29 36 mph 999mb 51f 49f
3:04 7ft 6s 22 27 mph 1002.8mb 51f 49f
2:04 6ft 6s 13 18 mph 1006mb 51f 49f
1:04 6ft 6s 18 22 mph 1006.4mb 51f 49f
12:04 6ft 5s 20 25 mph 1008.1mb 51f 49f
Qua 11/30 11:04 6ft 5s 20 25 mph 1010.1mb 51f 48f
10:04 7ft 5s 20 25 mph 1012mb 51f 48f
9:04 6ft 5s 22 27 mph 1012.8mb 51f 48f
8:04 6ft 5s 25 29 mph 1013.8mb 51f 47f
7:04 5.5ft 5s 22 27 mph 1015.1mb 51f 47f
5:04 4.5ft 4s 20 25 mph 1016.1mb 51f 46f
4:04 4.5ft 8s 20 22 mph 1016.2mb 51f 45f
3:04 2.5ft 4s 16 18 mph 1015.5mb 51f 46f
2:04 3.5ft 6s 16 18 mph 1015.3mb 51f 45f
1:04 3ft 6s 13 16 mph 1015.4mb 51f 46f
12:04 3.5ft 8s 7 9 mph 1016.6mb 51f 45f
11:04 3ft 6s 11 13 mph 1015.5mb 51f 44f
10:04 3.5ft 6s 13 16 mph 1015.6mb 51f 44f
9:04 3.5ft 6s 11 13 mph 1015.2mb 51f 44f
8:04 3.5ft 8s 9 11 mph 1015.3mb 51f 44f
7:04 4.5ft 8s 9 13 mph 1014.4mb 51f 44f
6:04 4.5ft 8s 9 11 mph 1013.8mb 51f 43f
5:04 5ft 8s 16 18 mph 1012.2mb 51f 43f
4:04 5ft 8s 16 18 mph 1012.2mb 51f 42f
3:04 4.5ft 8s 13 18 mph 1011.5mb 51f 42f
2:04 6ft 8s 18 22 mph 1010.6mb 51f 43f
1:04 6.5ft 8s 16 18 mph 1009.8mb 51f 42f
12:04 7.5ft 8s 18 20 mph 1009.3mb 51f 42f
Ter 11/29 11:04 9ft 8s 18 22 mph 1009.1mb 51f 42f
10:04 9ft 8s 18 25 mph 1008.2mb 51f 53f
9:04 11ft 8s 29 34 mph 1008.6mb 51f 53f
8:04 9.5ft 8s 29 38 mph 1009.5mb 51f 52f
7:04 11.5ft 8s 34 43 mph 1010.1mb 51f 52f
6:04 9.5ft 6s 29 36 mph 1012.5mb 51f 52f
5:04 7ft 6s 25 31 mph 1014.1mb 51f 51f
4:04 7ft 6s 27 34 mph 1015.4mb 51f 50f
3:04 6ft 5s 27 31 mph 1016.5mb 51f 50f
2:04 5ft 5s 22 27 mph 1017.5mb 51f 48f
1:04 4.5ft 5s 22 27 mph 1019mb 51f 48f
12:04 3.5ft 4s 18 22 mph 1020.4mb 51f 48f
11:04 2.5ft 4s 16 20 mph 1020.7mb 51f 49f
10:04 2.5ft 3s 16 18 mph 1021.7mb 51f 48f
9:04 1.6ft 3s 13 18 mph 1022.3mb 51f 47f
8:04 1ft 2s 13 16 mph 1022.3mb 51f 46f